createdAt,value
2023-02-24T00:02:20.108Z,0.40
2023-02-24T00:04:51.766Z,0.40
2023-02-24T00:07:21.470Z,0.30
2023-02-24T00:09:50.960Z,0.40
2023-02-24T00:12:20.694Z,0.40
2023-02-24T00:14:50.253Z,0.30
2023-02-24T00:17:23.472Z,0.30
2023-02-24T00:19:54.306Z,0.40
2023-02-24T00:22:23.812Z,0.40
2023-02-24T00:24:55.341Z,0.40
2023-02-24T00:27:24.830Z,0.30
2023-02-24T00:29:54.303Z,0.40
2023-02-24T00:32:25.569Z,0.40
2023-02-24T00:34:56.238Z,0.40
2023-02-24T00:37:27.580Z,0.40
2023-02-24T00:39:58.674Z,0.30
2023-02-24T00:42:28.168Z,0.30
2023-02-24T00:44:57.654Z,0.40
2023-02-24T00:47:28.595Z,0.40
2023-02-24T00:49:58.065Z,0.40
2023-02-24T00:52:29.653Z,0.40
2023-02-24T00:54:59.612Z,0.40
2023-02-24T00:57:33.437Z,0.40
2023-02-24T01:00:10.389Z,0.40
2023-02-24T01:02:41.344Z,0.40
2023-02-24T01:05:12.002Z,0.40
2023-02-24T01:07:48.677Z,0.33
2023-02-24T01:10:22.278Z,0.40
2023-02-24T01:12:50.803Z,0.37
2023-02-24T01:15:21.784Z,0.37
2023-02-24T01:17:52.656Z,0.40
2023-02-24T01:20:22.219Z,0.40
2023-02-24T01:22:53.324Z,0.40
2023-02-24T01:25:23.307Z,0.40
2023-02-24T01:27:53.986Z,0.40
2023-02-24T01:30:23.606Z,0.30
2023-02-24T01:32:54.857Z,0.40
2023-02-24T01:35:25.620Z,0.40
2023-02-24T01:37:55.146Z,0.40
2023-02-24T01:40:26.768Z,0.40
2023-02-24T01:42:56.334Z,0.40
2023-02-24T01:45:28.706Z,0.40
2023-02-24T01:48:03.000Z,0.40
2023-02-24T01:50:33.083Z,0.30
2023-02-24T01:53:04.231Z,0.33
2023-02-24T01:55:36.897Z,0.30
2023-02-24T01:58:08.747Z,0.30
2023-02-24T02:00:39.008Z,0.30
2023-02-24T02:03:15.588Z,0.30
2023-02-24T02:05:48.590Z,0.40
2023-02-24T02:08:19.002Z,0.40
2023-02-24T02:10:49.321Z,0.40
2023-02-24T02:13:21.190Z,0.40
2023-02-24T02:15:57.640Z,0.40
2023-02-24T02:18:34.477Z,0.37
2023-02-24T02:21:24.920Z,0.40
2023-02-24T02:24:00.240Z,0.30
2023-02-24T02:26:47.359Z,0.40
2023-02-24T02:29:34.866Z,0.30
2023-02-24T02:32:34.322Z,0.30
2023-02-24T02:35:09.267Z,0.40
2023-02-24T02:37:41.360Z,0.40
2023-02-24T02:40:20.823Z,0.30
2023-02-24T02:42:54.037Z,0.30
2023-02-24T02:45:26.272Z,0.40
2023-02-24T02:47:58.422Z,0.30
2023-02-24T02:50:35.903Z,0.30
2023-02-24T02:53:07.870Z,0.40
2023-02-24T02:55:40.157Z,0.30
2023-02-24T02:58:12.708Z,0.40
2023-02-24T03:00:50.135Z,0.40
2023-02-24T03:03:20.929Z,0.40
2023-02-24T03:05:56.155Z,0.40
2023-02-24T03:08:26.891Z,0.40
2023-02-24T03:11:00.398Z,0.40
2023-02-24T03:13:31.987Z,0.40
2023-02-24T03:16:03.884Z,0.40
2023-02-24T03:18:35.359Z,0.40
2023-02-24T03:21:08.763Z,0.30
2023-02-24T03:23:45.358Z,0.40
2023-02-24T03:26:19.068Z,0.40
2023-02-24T03:28:55.089Z,0.40
2023-02-24T03:31:28.835Z,0.37
2023-02-24T03:34:03.681Z,0.33
2023-02-24T03:36:35.045Z,0.30
2023-02-24T03:39:05.702Z,0.30
2023-02-24T03:41:42.101Z,0.40
2023-02-24T03:44:12.987Z,0.40
2023-02-24T03:46:43.080Z,0.40
2023-02-24T03:49:14.061Z,0.40
2023-02-24T03:51:48.839Z,0.40
2023-02-24T03:54:30.940Z,0.40
2023-02-24T03:57:09.267Z,0.40
2023-02-24T03:59:44.105Z,0.40
2023-02-24T04:02:15.997Z,0.40
2023-02-24T04:04:56.992Z,0.40
2023-02-24T04:07:41.169Z,0.40
2023-02-24T04:10:15.213Z,0.40
2023-02-24T04:12:51.742Z,0.40
2023-02-24T04:15:24.208Z,0.40
2023-02-24T04:17:57.507Z,0.30
2023-02-24T04:20:33.115Z,0.30
2023-02-24T04:23:08.802Z,0.40
2023-02-24T04:25:40.274Z,0.40
2023-02-24T04:28:10.538Z,0.40
2023-02-24T04:30:43.950Z,0.30
2023-02-24T04:33:15.048Z,0.40
2023-02-24T04:35:46.673Z,0.40
2023-02-24T04:38:17.660Z,0.40
2023-02-24T04:40:49.855Z,0.40
2023-02-24T04:43:19.475Z,0.40
2023-02-24T04:45:51.508Z,0.40
2023-02-24T04:48:21.004Z,0.40
2023-02-24T04:50:55.112Z,0.40
2023-02-24T04:53:27.302Z,0.40
2023-02-24T04:55:57.231Z,0.40
2023-02-24T04:58:28.119Z,0.40
2023-02-24T05:00:57.706Z,0.40
2023-02-24T05:03:30.054Z,0.40
2023-02-24T05:06:01.108Z,0.40
2023-02-24T05:08:32.455Z,0.40
2023-02-24T05:11:03.904Z,0.40
2023-02-24T05:13:37.592Z,0.40
2023-02-24T05:16:08.504Z,0.40
2023-02-24T05:18:38.005Z,0.40
2023-02-24T05:21:26.437Z,0.40
2023-02-24T05:23:59.376Z,0.40
2023-02-24T05:26:32.062Z,0.40
2023-02-24T05:29:01.942Z,0.40
2023-02-24T05:31:32.436Z,0.40
2023-02-24T05:34:02.965Z,0.30
2023-02-24T05:36:33.698Z,0.30
2023-02-24T05:39:07.907Z,0.40
2023-02-24T05:41:38.710Z,0.40
2023-02-24T05:44:09.796Z,0.40
2023-02-24T05:46:40.782Z,0.30
2023-02-24T05:49:14.355Z,0.40
2023-02-24T05:51:54.569Z,0.40
2023-02-24T05:54:29.126Z,0.40
2023-02-24T05:57:00.628Z,0.40
2023-02-24T05:59:32.952Z,0.40
2023-02-24T06:02:07.027Z,0.40
2023-02-24T06:04:51.359Z,0.40
2023-02-24T06:07:22.883Z,0.40
2023-02-24T06:09:56.405Z,0.40
2023-02-24T06:12:27.317Z,0.30
2023-02-24T06:14:58.119Z,0.40
2023-02-24T06:17:28.040Z,0.40
2023-02-24T06:19:57.511Z,0.40
2023-02-24T06:22:28.089Z,0.40
2023-02-24T06:24:58.932Z,0.40
2023-02-24T06:27:28.352Z,0.40
2023-02-24T06:29:57.952Z,0.40
2023-02-24T06:32:28.065Z,0.40
2023-02-24T06:34:59.373Z,0.40
2023-02-24T06:37:29.990Z,0.40
2023-02-24T06:40:01.499Z,0.40
2023-02-24T06:42:30.940Z,0.40
2023-02-24T06:45:00.430Z,0.40
2023-02-24T06:47:29.891Z,0.40
2023-02-24T06:49:59.340Z,0.40
2023-02-24T06:52:30.880Z,0.40
2023-02-24T06:55:04.665Z,0.40
2023-02-24T06:57:35.176Z,0.40
2023-02-24T07:00:17.013Z,0.40
2023-02-24T07:02:46.512Z,0.30
2023-02-24T07:05:17.088Z,0.40
2023-02-24T07:07:46.923Z,0.40
2023-02-24T07:10:18.054Z,0.40
2023-02-24T07:12:47.570Z,0.40
2023-02-24T07:15:18.095Z,0.30
2023-02-24T07:17:48.524Z,0.40
2023-02-24T07:20:25.550Z,0.30
2023-02-24T07:22:55.103Z,0.30
2023-02-24T07:25:33.743Z,0.40
2023-02-24T07:28:03.345Z,0.30
2023-02-24T07:30:34.372Z,0.37
2023-02-24T07:33:04.570Z,0.30
2023-02-24T07:35:35.578Z,0.30
2023-02-24T07:38:05.670Z,0.37
2023-02-24T07:40:36.640Z,0.30
2023-02-24T07:43:06.861Z,0.30
2023-02-24T07:45:36.536Z,0.30
2023-02-24T07:48:06.063Z,0.30
2023-02-24T07:50:35.552Z,0.30
2023-02-24T07:53:05.737Z,0.30
2023-02-24T07:55:37.639Z,0.30
2023-02-24T07:58:07.175Z,0.30
2023-02-24T08:00:57.046Z,0.30
2023-02-24T08:03:27.248Z,0.30
2023-02-24T08:06:00.166Z,0.30
2023-02-24T08:08:29.661Z,0.30
2023-02-24T08:11:04.166Z,0.30
2023-02-24T08:13:37.440Z,0.30
2023-02-24T08:16:07.736Z,0.30
2023-02-24T08:18:40.549Z,0.30
2023-02-24T08:21:10.130Z,0.30
2023-02-24T08:23:44.676Z,0.30
2023-02-24T08:26:16.129Z,0.30
2023-02-24T08:28:45.730Z,0.30
2023-02-24T08:31:18.359Z,0.30
2023-02-24T08:33:47.959Z,0.30
2023-02-24T08:36:21.433Z,0.30
2023-02-24T08:38:52.289Z,0.30
2023-02-24T08:41:43.328Z,0.30
2023-02-24T08:44:17.022Z,0.30
2023-02-24T08:46:49.188Z,0.27
2023-02-24T08:49:19.067Z,0.30
2023-02-24T08:51:49.525Z,0.30
2023-02-24T08:54:27.045Z,0.30
2023-02-24T08:56:58.055Z,0.30
2023-02-24T08:59:38.862Z,0.30
2023-02-24T09:02:19.335Z,0.30
2023-02-24T09:04:51.344Z,0.30
2023-02-24T09:07:21.986Z,0.30
2023-02-24T09:09:56.219Z,0.30
2023-02-24T09:12:29.147Z,0.30
2023-02-24T09:15:01.228Z,0.30
2023-02-24T09:17:51.034Z,0.30
2023-02-24T09:20:56.297Z,0.30
2023-02-24T09:23:30.883Z,0.30
2023-02-24T09:26:11.048Z,0.30
2023-02-24T09:28:49.640Z,0.30
2023-02-24T09:31:19.367Z,0.30
2023-02-24T09:33:51.139Z,0.30
2023-02-24T09:36:27.866Z,0.30
2023-02-24T09:39:10.754Z,0.30
2023-02-24T09:42:04.038Z,0.30
2023-02-24T09:44:36.768Z,0.30
2023-02-24T09:47:14.883Z,0.30
2023-02-24T09:49:48.593Z,0.20
2023-02-24T09:52:19.071Z,0.30
2023-02-24T09:58:10.773Z,0.30
2023-02-24T10:00:44.276Z,0.30
2023-02-24T10:03:20.693Z,0.30
2023-02-24T10:05:58.899Z,0.30
2023-02-24T10:08:32.941Z,0.30
2023-02-24T10:11:08.095Z,0.30
2023-02-24T10:13:40.173Z,0.20
2023-02-24T10:16:13.201Z,0.30
2023-02-24T10:18:45.376Z,0.27
2023-02-24T10:21:19.327Z,0.30
2023-02-24T10:23:56.673Z,0.30
2023-02-24T10:26:31.944Z,0.30
2023-02-24T10:29:09.117Z,0.30
2023-02-24T10:31:43.414Z,0.20
2023-02-24T10:34:20.252Z,0.30
2023-02-24T10:36:50.658Z,0.30
2023-02-24T10:39:25.416Z,0.30
2023-02-24T10:41:57.927Z,0.30
2023-02-24T10:44:36.122Z,0.20
2023-02-24T10:47:12.631Z,0.20
2023-02-24T10:49:57.004Z,0.30
2023-02-24T10:52:37.161Z,0.30
2023-02-24T10:55:27.914Z,0.30
2023-02-24T10:58:06.978Z,0.30
2023-02-24T11:01:02.185Z,0.30
2023-02-24T11:03:42.168Z,0.30
2023-02-24T11:06:42.297Z,0.30
2023-02-24T11:09:34.840Z,0.30
2023-02-24T11:12:25.706Z,0.40
2023-02-24T11:15:13.360Z,0.40
2023-02-24T11:17:49.336Z,0.30
2023-02-24T11:20:22.973Z,0.30
2023-02-24T11:22:55.850Z,0.30
2023-02-24T11:25:26.577Z,0.30
2023-02-24T11:27:56.831Z,0.30
2023-02-24T11:30:31.458Z,0.30
2023-02-24T11:33:13.797Z,0.30
2023-02-24T11:35:47.379Z,0.30
2023-02-24T11:38:27.788Z,0.20
2023-02-24T11:41:02.914Z,0.20
2023-02-24T11:43:33.497Z,0.20
2023-02-24T11:46:05.685Z,0.20
2023-02-24T11:48:39.341Z,0.20
2023-02-24T11:51:12.575Z,0.20
2023-02-24T11:53:45.908Z,0.20
2023-02-24T11:56:18.561Z,0.20
2023-02-24T11:58:52.096Z,0.30
2023-02-24T12:01:24.929Z,0.20
2023-02-24T12:03:57.884Z,0.30
2023-02-24T12:06:30.791Z,0.30
2023-02-24T12:09:02.872Z,0.27
2023-02-24T12:11:38.752Z,0.30
2023-02-24T12:14:17.418Z,0.30
2023-02-24T12:16:49.398Z,0.20
2023-02-24T12:19:22.385Z,0.30
2023-02-24T12:21:53.804Z,0.20
2023-02-24T12:24:23.896Z,0.30
2023-02-24T12:26:59.430Z,0.30
2023-02-24T12:29:43.740Z,0.30
2023-02-24T12:32:18.904Z,0.20
2023-02-24T12:34:57.073Z,0.20
2023-02-24T12:37:34.811Z,0.20
2023-02-24T12:40:11.662Z,0.30
2023-02-24T12:42:44.192Z,0.20
2023-02-24T12:45:17.521Z,0.30
2023-02-24T12:47:51.536Z,0.20
2023-02-24T12:50:31.171Z,0.30
2023-02-24T12:53:06.450Z,0.20
2023-02-24T12:55:40.695Z,0.20
2023-02-24T12:58:13.858Z,0.20
2023-02-24T13:00:48.439Z,0.30
2023-02-24T13:03:25.866Z,0.20
2023-02-24T13:06:02.704Z,0.27
2023-02-24T13:08:39.242Z,0.20
2023-02-24T13:11:13.250Z,0.20
2023-02-24T13:13:48.833Z,0.20
2023-02-24T13:16:28.663Z,0.20
2023-02-24T13:19:06.281Z,0.30
2023-02-24T13:21:38.430Z,0.20
2023-02-24T13:24:08.870Z,0.20
2023-02-24T13:26:38.349Z,0.20
2023-02-24T13:29:12.269Z,0.30
2023-02-24T13:31:43.602Z,0.30
2023-02-24T13:34:17.814Z,0.20
2023-02-24T13:36:52.133Z,0.20
2023-02-24T13:39:27.107Z,0.30
2023-02-24T13:42:04.763Z,0.30
2023-02-24T13:44:34.756Z,0.20
2023-02-24T13:47:15.142Z,0.30
2023-02-24T13:49:49.142Z,0.23
2023-02-24T13:52:22.453Z,0.30
2023-02-24T13:55:00.472Z,0.30
2023-02-24T13:57:54.065Z,0.30
2023-02-24T14:00:28.969Z,0.30
2023-02-24T14:02:59.061Z,0.30
2023-02-24T14:05:29.935Z,0.30
2023-02-24T14:08:01.107Z,0.20
2023-02-24T14:10:31.624Z,0.20
2023-02-24T14:13:05.154Z,0.30
2023-02-24T14:15:35.364Z,0.23
2023-02-24T14:18:05.968Z,0.30
2023-02-24T14:20:37.492Z,0.30
2023-02-24T14:23:22.148Z,0.20
2023-02-24T14:25:55.761Z,0.27
2023-02-24T14:28:26.905Z,0.30
2023-02-24T14:30:58.864Z,0.30
2023-02-24T14:33:30.727Z,0.30
2023-02-24T14:36:00.609Z,0.20
2023-02-24T14:38:33.676Z,0.30
2023-02-24T14:41:03.650Z,0.30
2023-02-24T14:43:33.402Z,0.30
2023-02-24T14:46:06.398Z,0.30
2023-02-24T14:48:36.405Z,0.30
2023-02-24T14:51:09.878Z,0.30
2023-02-24T14:53:43.496Z,0.30
2023-02-24T14:56:14.516Z,0.30
2023-02-24T14:58:45.916Z,0.30
2023-02-24T15:01:20.022Z,0.30
2023-02-24T15:03:51.216Z,0.30
2023-02-24T15:06:22.751Z,0.30
2023-02-24T15:08:58.280Z,0.30
2023-02-24T15:11:29.678Z,0.30
2023-02-24T15:14:00.040Z,0.30
2023-02-24T15:16:31.600Z,0.30
2023-02-24T15:19:02.476Z,0.30
2023-02-24T15:21:33.014Z,0.30
2023-02-24T15:24:04.775Z,0.30
2023-02-24T15:26:35.504Z,0.23
2023-02-24T15:29:14.464Z,0.30
2023-02-24T15:31:48.582Z,0.30
2023-02-24T15:34:19.858Z,0.30
2023-02-24T15:36:49.989Z,0.30
2023-02-24T15:39:23.997Z,0.40
2023-02-24T15:41:54.010Z,0.30
2023-02-24T15:44:27.562Z,0.20
2023-02-24T15:46:57.268Z,0.30
2023-02-24T15:49:26.907Z,0.30
2023-02-24T15:51:59.557Z,0.30
2023-02-24T15:54:32.023Z,0.30
2023-02-24T15:57:02.247Z,0.30
2023-02-24T15:59:31.724Z,0.30
2023-02-24T16:02:01.249Z,0.30
2023-02-24T16:04:31.694Z,0.30
2023-02-24T16:07:01.181Z,0.30
2023-02-24T16:09:33.889Z,0.30
2023-02-24T16:12:04.286Z,0.30
2023-02-24T16:14:36.138Z,0.30
2023-02-24T16:17:07.314Z,0.30
2023-02-24T16:19:37.297Z,0.30
2023-02-24T16:22:06.918Z,0.30
2023-02-24T16:24:38.226Z,0.30
2023-02-24T16:27:07.735Z,0.30
2023-02-24T16:29:37.222Z,0.30
2023-02-24T16:32:06.937Z,0.30
2023-02-24T16:34:36.616Z,0.30
2023-02-24T16:37:06.406Z,0.30
2023-02-24T16:39:36.342Z,0.30
2023-02-24T16:42:08.507Z,0.30
2023-02-24T16:44:37.984Z,0.30
2023-02-24T16:47:08.342Z,0.30
2023-02-24T16:49:37.867Z,0.30
2023-02-24T16:52:07.344Z,0.30
2023-02-24T16:54:36.827Z,0.30
2023-02-24T16:57:07.778Z,0.30
2023-02-24T16:59:37.334Z,0.40
2023-02-24T17:02:06.893Z,0.30
2023-02-24T17:04:37.184Z,0.40
2023-02-24T17:07:06.725Z,0.30
2023-02-24T17:09:36.208Z,0.40
2023-02-24T17:12:06.020Z,0.30
2023-02-24T17:14:36.918Z,0.30
2023-02-24T17:17:06.523Z,0.30
2023-02-24T17:19:36.080Z,0.30
2023-02-24T17:22:05.864Z,0.30
2023-02-24T17:24:35.712Z,0.30
2023-02-24T17:27:05.256Z,0.30
2023-02-24T17:29:34.981Z,0.30
2023-02-24T17:32:06.105Z,0.30
2023-02-24T17:34:35.695Z,0.30
2023-02-24T17:37:05.221Z,0.30
2023-02-24T17:39:34.699Z,0.30
2023-02-24T17:42:05.282Z,0.30
2023-02-24T17:44:35.409Z,0.30
2023-02-24T17:47:07.789Z,0.30
2023-02-24T17:49:37.344Z,0.30
2023-02-24T17:52:07.179Z,0.30
2023-02-24T17:54:36.641Z,0.30
2023-02-24T17:57:06.136Z,0.30
2023-02-24T17:59:35.612Z,0.30
2023-02-24T18:02:06.526Z,0.30
2023-02-24T18:04:36.063Z,0.30
2023-02-24T18:07:05.763Z,0.30
2023-02-24T18:09:35.298Z,0.30
2023-02-24T18:12:05.184Z,0.30
2023-02-24T18:14:34.768Z,0.30
2023-02-24T18:17:04.291Z,0.30
2023-02-24T18:19:35.133Z,0.30
2023-02-24T18:22:04.649Z,0.30
2023-02-24T18:24:34.555Z,0.30
2023-02-24T18:27:04.373Z,0.30
2023-02-24T18:29:33.984Z,0.30
2023-02-24T18:32:04.306Z,0.30
2023-02-24T18:34:35.274Z,0.40
2023-02-24T18:37:04.760Z,0.30
2023-02-24T18:39:34.515Z,0.40
2023-02-24T18:42:04.199Z,0.30
2023-02-24T18:44:33.766Z,0.30
2023-02-24T18:47:09.289Z,0.30
2023-02-24T18:49:40.400Z,0.30
2023-02-24T18:52:11.556Z,0.40
2023-02-24T18:54:41.066Z,0.30
2023-02-24T18:57:10.559Z,0.30
2023-02-24T18:59:40.051Z,0.33
2023-02-24T19:02:11.237Z,0.30
2023-02-24T19:04:42.159Z,0.40
2023-02-24T19:07:11.824Z,0.30
2023-02-24T19:09:42.677Z,0.40
2023-02-24T19:12:12.246Z,0.40
2023-02-24T19:14:41.735Z,0.40
2023-02-24T19:17:11.253Z,0.40
2023-02-24T19:19:43.478Z,0.40
2023-02-24T19:22:13.063Z,0.40
2023-02-24T19:24:43.074Z,0.40
2023-02-24T19:27:14.034Z,0.40
2023-02-24T19:29:43.586Z,0.30
2023-02-24T19:32:13.267Z,0.40
2023-02-24T19:34:44.156Z,0.40
2023-02-24T19:37:13.659Z,0.30
2023-02-24T19:39:43.169Z,0.40
2023-02-24T19:42:12.697Z,0.30
2023-02-24T19:44:42.245Z,0.33
2023-02-24T19:47:11.688Z,0.40
2023-02-24T19:49:41.150Z,0.30
2023-02-24T19:52:12.357Z,0.40
2023-02-24T19:54:41.810Z,0.40
2023-02-24T19:57:11.285Z,0.40
2023-02-24T19:59:40.862Z,0.40
2023-02-24T20:02:11.733Z,0.30
2023-02-24T20:04:41.255Z,0.40
2023-02-24T20:07:12.288Z,0.40
2023-02-24T20:09:43.181Z,0.40
2023-02-24T20:12:12.666Z,0.30
2023-02-24T20:14:42.656Z,0.40
2023-02-24T20:17:12.194Z,0.40
2023-02-24T20:19:41.698Z,0.30
2023-02-24T20:22:12.619Z,0.40
2023-02-24T20:24:42.614Z,0.40
2023-02-24T20:27:12.148Z,0.30
2023-02-24T20:29:41.633Z,0.30
2023-02-24T20:32:11.259Z,0.40
2023-02-24T20:34:41.279Z,0.40
2023-02-24T20:37:12.199Z,0.30
2023-02-24T20:39:41.698Z,0.40
2023-02-24T20:42:12.172Z,0.40
2023-02-24T20:44:41.680Z,0.30
2023-02-24T20:47:11.605Z,0.40
2023-02-24T20:49:41.180Z,0.40
2023-02-24T20:52:12.444Z,0.40
2023-02-24T20:54:43.359Z,0.40
2023-02-24T20:57:12.837Z,0.30
2023-02-24T20:59:47.298Z,0.40
2023-02-24T21:02:24.234Z,0.40
2023-02-24T21:04:53.791Z,0.40
2023-02-24T21:07:24.670Z,0.40
2023-02-24T21:09:54.179Z,0.30
2023-02-24T21:12:23.812Z,0.40
2023-02-24T21:14:53.479Z,0.30
2023-02-24T21:17:23.363Z,0.30
2023-02-24T21:19:52.843Z,0.40
2023-02-24T21:22:22.288Z,0.40
2023-02-24T21:24:53.212Z,0.37
2023-02-24T21:27:22.733Z,0.40
2023-02-24T21:29:52.393Z,0.33
2023-02-24T21:32:22.012Z,0.30
2023-02-24T21:34:52.253Z,0.30
2023-02-24T21:37:21.836Z,0.40
2023-02-24T21:39:52.711Z,0.30
2023-02-24T21:42:22.715Z,0.30
2023-02-24T21:44:52.334Z,0.40
2023-02-24T21:47:21.916Z,0.40
2023-02-24T21:49:51.413Z,0.40
2023-02-24T21:52:21.162Z,0.40
2023-02-24T21:54:50.802Z,0.40
2023-02-24T21:57:21.691Z,0.40
2023-02-24T21:59:51.264Z,0.40
2023-02-24T22:02:20.762Z,0.40
2023-02-24T22:04:52.057Z,0.40
2023-02-24T22:07:21.563Z,0.33
2023-02-24T22:09:51.714Z,0.40
2023-02-24T22:12:22.554Z,0.40
2023-02-24T22:14:52.052Z,0.40
2023-02-24T22:17:21.537Z,0.40
2023-02-24T22:19:51.070Z,0.40
2023-02-24T22:22:20.989Z,0.37
2023-02-24T22:24:51.614Z,0.30
2023-02-24T22:27:23.319Z,0.37
2023-02-24T22:29:52.856Z,0.40
2023-02-24T22:32:22.504Z,0.30
2023-02-24T22:34:52.155Z,0.30
2023-02-24T22:37:21.687Z,0.40
2023-02-24T22:39:51.268Z,0.40
2023-02-24T22:42:22.183Z,0.40
2023-02-24T22:44:52.975Z,0.40
2023-02-24T22:47:22.681Z,0.40
2023-02-24T22:49:52.167Z,0.40
2023-02-24T22:52:21.628Z,0.40
2023-02-24T22:54:53.184Z,0.40
2023-02-24T22:57:24.059Z,0.40
2023-02-24T22:59:53.540Z,0.40
2023-02-24T23:02:23.073Z,0.30
2023-02-24T23:04:52.536Z,0.40
2023-02-24T23:07:22.049Z,0.40
2023-02-24T23:09:53.246Z,0.40
2023-02-24T23:12:24.362Z,0.40
2023-02-24T23:14:54.062Z,0.40
2023-02-24T23:17:24.155Z,0.40
2023-02-24T23:19:54.109Z,0.30
2023-02-24T23:22:24.319Z,0.40
2023-02-24T23:24:54.640Z,0.40
2023-02-24T23:27:26.169Z,0.40
2023-02-24T23:29:55.635Z,0.40
2023-02-24T23:32:25.252Z,0.40
2023-02-24T23:34:55.088Z,0.40
2023-02-24T23:37:24.637Z,0.40
2023-02-24T23:39:54.338Z,0.40
2023-02-24T23:42:23.819Z,0.40
2023-02-24T23:44:54.702Z,0.40
2023-02-24T23:47:24.408Z,0.40
2023-02-24T23:49:54.372Z,0.40
2023-02-24T23:52:23.986Z,0.50
2023-02-24T23:54:54.097Z,0.40
2023-02-24T23:57:23.928Z,0.40
2023-02-24T23:59:54.886Z,0.40
